createdAt,value
2023-05-13T00:02:08.381Z,96045.94
2023-05-13T00:04:35.057Z,96046.69
2023-05-13T00:07:01.960Z,96042.59
2023-05-13T00:09:28.596Z,96042.44
2023-05-13T00:11:55.387Z,96036.06
2023-05-13T00:14:22.001Z,96039.63
2023-05-13T00:16:48.651Z,96045.19
2023-05-13T00:19:15.410Z,96046.78
2023-05-13T00:21:42.033Z,96044.41
2023-05-13T00:24:08.753Z,96036.53
2023-05-13T00:26:35.329Z,96036.63
2023-05-13T00:29:01.998Z,96036.72
2023-05-13T00:31:28.824Z,96039.50
2023-05-13T00:33:55.493Z,96045.34
2023-05-13T00:36:22.125Z,96038.25
2023-05-13T00:38:48.756Z,96041.81
2023-05-13T00:41:15.493Z,96041.41
2023-05-13T00:43:42.125Z,96044.19
2023-05-13T00:46:09.089Z,96037.72
2023-05-13T00:48:35.839Z,96037.97
2023-05-13T00:51:02.564Z,96035.69
2023-05-13T00:53:32.399Z,96033.03
2023-05-13T00:55:59.218Z,96035.09
2023-05-13T00:58:26.039Z,96038.84
2023-05-13T01:01:17.822Z,96039.56
2023-05-13T01:03:55.966Z,96049.72
2023-05-13T01:06:44.242Z,96036.41
2023-05-13T01:09:26.254Z,96045.22
2023-05-13T01:11:56.137Z,96042.84
2023-05-13T01:14:27.609Z,96046.84
2023-05-13T01:17:11.452Z,96047.72
2023-05-13T01:19:40.648Z,96047.31
2023-05-13T01:22:07.322Z,96049.88
2023-05-13T01:24:34.003Z,96050.28
2023-05-13T01:27:01.185Z,96050.47
2023-05-13T01:29:28.424Z,96049.28
2023-05-13T01:31:57.341Z,96053.09
2023-05-13T01:34:25.933Z,96057.34
2023-05-13T01:36:52.715Z,96058.47
2023-05-13T01:39:20.454Z,96052.59
2023-05-13T01:41:47.230Z,96053.34
2023-05-13T01:44:13.881Z,96050.78
2023-05-13T01:46:40.697Z,96057.94
2023-05-13T01:49:09.048Z,96056.69
2023-05-13T01:51:36.836Z,96067.03
2023-05-13T01:54:04.530Z,96057.63
2023-05-13T01:56:31.208Z,96060.88
2023-05-13T01:58:57.828Z,96058.72
2023-05-13T02:01:24.512Z,96056.16
2023-05-13T02:03:51.224Z,96057.63
2023-05-13T02:06:18.100Z,96061.88
2023-05-13T02:08:44.729Z,96064.06
2023-05-13T02:11:11.299Z,96058.47
2023-05-13T02:13:38.204Z,96057.72
2023-05-13T02:16:05.309Z,96054.94
2023-05-13T02:18:32.026Z,96059.44
2023-05-13T02:20:58.680Z,96051.91
2023-05-13T02:23:25.323Z,96058.25
2023-05-13T02:25:52.035Z,96057.34
2023-05-13T02:28:19.126Z,96046.13
2023-05-13T02:30:45.736Z,96044.16
2023-05-13T02:33:12.584Z,96052.94
2023-05-13T02:35:39.293Z,96054.50
2023-05-13T02:38:05.944Z,96057.09
2023-05-13T02:40:32.564Z,96051.31
2023-05-13T02:42:59.145Z,96057.66
2023-05-13T02:45:25.797Z,96052.75
2023-05-13T02:47:52.488Z,96052.41
2023-05-13T02:50:19.402Z,96057.91
2023-05-13T02:52:46.279Z,96050.88
2023-05-13T02:55:12.990Z,96048.88
2023-05-13T02:57:39.661Z,96054.16
2023-05-13T03:00:07.010Z,96054.53
2023-05-13T03:02:35.062Z,96053.34
2023-05-13T03:05:01.745Z,96060.41
2023-05-13T03:07:28.390Z,96057.13
2023-05-13T03:09:55.058Z,96055.16
2023-05-13T03:12:21.848Z,96061.50
2023-05-13T03:14:48.452Z,96062.03
2023-05-13T03:17:15.117Z,96062.91
2023-05-13T03:19:41.714Z,96060.09
2023-05-13T03:22:08.389Z,96065.50
2023-05-13T03:24:35.070Z,96065.69
2023-05-13T03:27:01.709Z,96068.47
2023-05-13T03:29:28.316Z,96061.72
2023-05-13T03:31:55.054Z,96071.28
2023-05-13T03:34:21.663Z,96069.78
2023-05-13T03:36:48.347Z,96066.09
2023-05-13T03:39:14.939Z,96068.28
2023-05-13T03:41:41.607Z,96071.28
2023-05-13T03:44:08.231Z,96073.84
2023-05-13T03:46:34.856Z,96074.56
2023-05-13T03:49:01.463Z,96069.47
2023-05-13T03:51:28.104Z,96073.66
2023-05-13T03:53:54.824Z,96081.72
2023-05-13T03:56:21.758Z,96081.78
2023-05-13T03:58:48.494Z,96084.47
2023-05-13T04:01:15.114Z,96080.59
2023-05-13T04:03:44.304Z,96079.63
2023-05-13T04:06:11.154Z,96089.78
2023-05-13T04:08:37.770Z,96082.63
2023-05-13T04:11:04.439Z,96082.22
2023-05-13T04:13:32.775Z,96097.56
2023-05-13T04:15:59.349Z,96093.44
2023-05-13T04:18:26.048Z,96090.97
2023-05-13T04:20:52.710Z,96090.69
2023-05-13T04:23:19.281Z,96091.56
2023-05-13T04:25:51.974Z,96089.19
2023-05-13T04:28:21.353Z,96095.75
2023-05-13T04:30:47.960Z,96099.34
2023-05-13T04:33:14.598Z,96098.81
2023-05-13T04:35:41.343Z,96104.31
2023-05-13T04:38:08.227Z,96109.56
2023-05-13T04:40:34.937Z,96116.34
2023-05-13T04:43:01.559Z,96118.81
2023-05-13T04:45:28.344Z,96111.97
2023-05-13T04:47:56.207Z,96118.81
2023-05-13T04:50:24.910Z,96122.00
2023-05-13T04:52:54.757Z,96116.31
2023-05-13T04:55:21.728Z,96122.59
2023-05-13T04:57:49.232Z,96116.25
2023-05-13T05:00:16.341Z,96126.50
2023-05-13T05:02:43.038Z,96127.56
2023-05-13T05:05:09.931Z,96122.97
2023-05-13T05:07:40.449Z,96123.00
2023-05-13T05:10:08.631Z,96124.19
2023-05-13T05:12:35.473Z,96123.00
2023-05-13T05:15:02.095Z,96134.84
2023-05-13T05:17:32.708Z,96137.31
2023-05-13T05:19:59.877Z,96133.56
2023-05-13T05:22:27.048Z,96136.13
2023-05-13T05:24:53.733Z,96134.88
2023-05-13T05:27:20.432Z,96123.91
2023-05-13T05:29:47.065Z,96126.69
2023-05-13T05:32:13.798Z,96134.34
2023-05-13T05:34:41.029Z,96134.56
2023-05-13T05:37:07.665Z,96133.44
2023-05-13T05:39:35.383Z,96136.16
2023-05-13T05:42:02.210Z,96135.34
2023-05-13T05:44:28.791Z,96147.59
2023-05-13T05:46:55.581Z,96142.13
2023-05-13T05:49:22.206Z,96149.59
2023-05-13T05:51:48.940Z,96144.50
2023-05-13T05:54:15.597Z,96135.16
2023-05-13T05:56:42.577Z,96141.94
2023-05-13T05:59:09.186Z,96137.94
2023-05-13T06:01:36.940Z,96144.91
2023-05-13T06:04:04.445Z,96144.91
2023-05-13T06:06:32.405Z,96147.78
2023-05-13T06:08:59.147Z,96143.00
2023-05-13T06:11:26.012Z,96152.28
2023-05-13T06:13:53.885Z,96143.72
2023-05-13T06:16:20.573Z,96151.84
2023-05-13T06:18:47.251Z,96158.66
2023-05-13T06:21:14.244Z,96149.28
2023-05-13T06:23:41.024Z,96153.69
2023-05-13T06:26:07.688Z,96149.50
2023-05-13T06:28:34.350Z,96164.53
2023-05-13T06:31:00.998Z,96152.97
2023-05-13T06:33:27.675Z,96162.22
2023-05-13T06:35:54.377Z,96160.59
2023-05-13T06:38:21.061Z,96157.59
2023-05-13T06:40:47.743Z,96166.66
2023-05-13T06:43:18.167Z,96170.56
2023-05-13T06:45:44.916Z,96171.97
2023-05-13T06:48:11.841Z,96173.16
2023-05-13T06:50:38.475Z,96179.56
2023-05-13T06:53:05.187Z,96174.72
2023-05-13T06:55:31.972Z,96171.91
2023-05-13T06:57:58.580Z,96174.31
2023-05-13T07:00:25.307Z,96183.41
2023-05-13T07:02:51.969Z,96183.00
2023-05-13T07:05:18.654Z,96179.28
2023-05-13T07:07:46.037Z,96183.50
2023-05-13T07:10:12.775Z,96183.13
2023-05-13T07:12:39.424Z,96173.34
2023-05-13T07:15:06.724Z,96176.69
2023-05-13T07:17:33.410Z,96177.25
2023-05-13T07:20:00.064Z,96173.81
2023-05-13T07:22:27.247Z,96178.53
2023-05-13T07:24:53.938Z,96180.78
2023-05-13T07:27:21.923Z,96184.47
2023-05-13T07:29:48.588Z,96186.41
2023-05-13T07:32:15.355Z,96180.69
2023-05-13T07:34:42.102Z,96179.69
2023-05-13T07:37:08.764Z,96180.44
2023-05-13T07:39:35.491Z,96177.00
2023-05-13T07:42:02.313Z,96189.00
2023-05-13T07:44:28.911Z,96183.97
2023-05-13T07:46:55.647Z,96180.75
2023-05-13T07:49:23.481Z,96184.72
2023-05-13T07:51:50.556Z,96178.84
2023-05-13T07:54:17.261Z,96177.41
2023-05-13T07:56:44.393Z,96181.41
2023-05-13T07:59:11.171Z,96182.03
2023-05-13T08:01:37.966Z,96175.22
2023-05-13T08:04:04.881Z,96177.97
2023-05-13T08:06:32.790Z,96171.41
2023-05-13T08:08:59.748Z,96174.34
2023-05-13T08:11:26.439Z,96174.41
2023-05-13T08:13:53.176Z,96175.25
2023-05-13T08:16:19.885Z,96183.19
2023-05-13T08:18:46.552Z,96177.03
2023-05-13T08:21:13.215Z,96176.56
2023-05-13T08:23:45.481Z,96172.97
2023-05-13T08:26:13.332Z,96172.78
2023-05-13T08:28:40.006Z,96176.19
2023-05-13T08:31:06.663Z,96181.22
2023-05-13T08:33:33.539Z,96176.50
2023-05-13T08:36:01.184Z,96180.41
2023-05-13T08:38:27.901Z,96175.19
2023-05-13T08:40:54.720Z,96181.88
2023-05-13T08:43:24.397Z,96175.94
2023-05-13T08:45:52.339Z,96180.56
2023-05-13T08:48:20.374Z,96183.09
2023-05-13T08:50:47.260Z,96182.00
2023-05-13T08:53:13.965Z,96174.56
2023-05-13T08:55:40.669Z,96181.72
2023-05-13T08:58:08.053Z,96169.19
2023-05-13T09:00:35.065Z,96181.25
2023-05-13T09:03:02.093Z,96175.69
2023-05-13T09:05:28.998Z,96173.91
2023-05-13T09:07:56.468Z,96172.81
2023-05-13T09:10:23.171Z,96179.00
2023-05-13T09:12:56.174Z,96188.19
2023-05-13T09:15:24.781Z,96179.13
2023-05-13T09:17:56.566Z,96172.97
2023-05-13T09:20:25.494Z,96175.22
2023-05-13T09:22:53.490Z,96175.53
2023-05-13T09:25:21.692Z,96181.25
2023-05-13T09:27:51.865Z,96171.44
2023-05-13T09:30:20.689Z,96168.06
2023-05-13T09:33:05.826Z,96160.72
2023-05-13T09:35:33.349Z,96169.94
2023-05-13T09:38:00.247Z,96170.75
2023-05-13T09:40:26.965Z,96157.84
2023-05-13T09:43:00.514Z,96154.53
2023-05-13T09:45:27.233Z,96161.31
2023-05-13T09:47:55.286Z,96156.81
2023-05-13T09:50:22.476Z,96154.56
2023-05-13T09:52:49.318Z,96155.16
2023-05-13T09:55:16.173Z,96152.34
2023-05-13T09:57:42.882Z,96158.78
2023-05-13T10:00:15.246Z,96153.34
2023-05-13T10:02:52.227Z,96161.41
2023-05-13T10:05:19.324Z,96163.94
2023-05-13T10:07:46.417Z,96156.00
2023-05-13T10:10:13.154Z,96160.16
2023-05-13T10:12:42.267Z,96153.09
2023-05-13T10:15:10.082Z,96154.38
2023-05-13T10:17:36.952Z,96155.03
2023-05-13T10:20:05.283Z,96150.94
2023-05-13T10:22:34.710Z,96135.59
2023-05-13T10:25:03.087Z,96147.81
2023-05-13T10:27:32.046Z,96144.28
2023-05-13T10:30:02.412Z,96150.16
2023-05-13T10:32:31.269Z,96144.88
2023-05-13T10:35:05.134Z,96148.16
2023-05-13T10:37:31.707Z,96144.56
2023-05-13T10:40:04.261Z,96138.94
2023-05-13T10:42:44.733Z,96133.88
2023-05-13T10:45:11.476Z,96133.31
2023-05-13T10:47:39.009Z,96138.47
2023-05-13T10:50:26.312Z,96138.28
2023-05-13T10:52:58.196Z,96131.78
2023-05-13T10:55:27.315Z,96138.38
2023-05-13T10:58:17.005Z,96133.41
2023-05-13T11:00:45.236Z,96134.88
2023-05-13T11:03:18.737Z,96141.47
2023-05-13T11:05:47.414Z,96138.16
2023-05-13T11:08:36.531Z,96136.06
2023-05-13T11:11:03.287Z,96136.59
2023-05-13T11:13:38.664Z,96137.03
2023-05-13T11:16:06.647Z,96135.47
2023-05-13T11:18:35.037Z,96131.41
2023-05-13T11:21:06.647Z,96123.69
2023-05-13T11:23:56.896Z,96131.84
2023-05-13T11:26:23.732Z,96138.50
2023-05-13T11:29:04.880Z,96135.00
2023-05-13T11:31:51.086Z,96128.66
2023-05-13T11:34:19.100Z,96123.09
2023-05-13T11:36:48.514Z,96119.25
2023-05-13T11:39:21.562Z,96120.94
2023-05-13T11:41:48.065Z,96120.00
2023-05-13T11:44:17.757Z,96120.97
2023-05-13T11:47:01.211Z,96120.28
2023-05-13T11:49:32.983Z,96105.31
2023-05-13T11:52:01.707Z,96104.59
2023-05-13T11:54:28.731Z,96103.09
2023-05-13T11:56:55.381Z,96094.38
2023-05-13T11:59:22.841Z,96091.91
2023-05-13T12:02:02.679Z,96091.44
2023-05-13T12:04:30.841Z,96087.72
2023-05-13T12:06:58.090Z,96088.03
2023-05-13T12:09:25.474Z,96086.75
2023-05-13T12:11:53.025Z,96082.66
2023-05-13T12:14:22.881Z,96079.66
2023-05-13T12:16:50.694Z,96085.09
2023-05-13T12:19:17.403Z,96079.50
2023-05-13T12:21:44.575Z,96065.94
2023-05-13T12:24:18.734Z,96070.91
2023-05-13T12:26:46.033Z,96062.91
2023-05-13T12:29:12.808Z,96066.16
2023-05-13T12:32:01.221Z,96061.25
2023-05-13T12:34:32.550Z,96053.31
2023-05-13T12:37:12.475Z,96051.78
2023-05-13T12:39:41.581Z,96048.66
2023-05-13T12:42:18.386Z,96054.75
2023-05-13T12:44:45.927Z,96057.91
2023-05-13T12:47:15.579Z,96055.25
2023-05-13T12:49:53.126Z,96047.28
2023-05-13T12:52:19.934Z,96039.34
2023-05-13T12:54:46.565Z,96035.28
2023-05-13T12:57:13.208Z,96035.38
2023-05-13T12:59:39.857Z,96039.66
2023-05-13T13:02:07.065Z,96039.16
2023-05-13T13:04:33.669Z,96033.25
2023-05-13T13:07:00.376Z,96035.66
2023-05-13T13:09:27.044Z,96035.53
2023-05-13T13:11:53.738Z,96040.03
2023-05-13T13:14:20.685Z,96033.25
2023-05-13T13:16:47.471Z,96038.09
2023-05-13T13:19:14.187Z,96044.63
2023-05-13T13:21:40.904Z,96044.47
2023-05-13T13:24:07.747Z,96038.81
2023-05-13T13:26:34.409Z,96037.97
2023-05-13T13:29:01.025Z,96048.91
2023-05-13T13:31:27.693Z,96038.19
2023-05-13T13:33:54.435Z,96041.38
2023-05-13T13:36:21.137Z,96039.91
2023-05-13T13:38:47.711Z,96044.03
2023-05-13T13:41:14.316Z,96052.31
2023-05-13T13:43:40.943Z,96046.00
2023-05-13T13:46:08.023Z,96043.28
2023-05-13T13:48:34.680Z,96051.25
2023-05-13T13:51:01.268Z,96043.84
2023-05-13T13:53:27.919Z,96044.16
2023-05-13T13:55:54.655Z,96040.84
2023-05-13T13:58:22.301Z,96042.91
2023-05-13T14:00:48.902Z,96039.00
2023-05-13T14:03:15.583Z,96027.53
2023-05-13T14:05:42.246Z,96025.69
2023-05-13T14:08:08.882Z,96027.69
2023-05-13T14:10:35.608Z,96020.09
2023-05-13T14:13:02.281Z,96021.53
2023-05-13T14:15:30.755Z,96020.28
2023-05-13T14:17:57.864Z,96023.03
2023-05-13T14:20:25.153Z,96031.72
2023-05-13T14:22:51.789Z,96032.88
2023-05-13T14:25:18.410Z,96030.31
2023-05-13T14:27:44.999Z,96047.66
2023-05-13T14:30:11.888Z,96042.00
2023-05-13T14:32:38.625Z,96047.75
2023-05-13T14:35:05.727Z,96050.97
2023-05-13T14:37:32.353Z,96054.56
2023-05-13T14:39:58.939Z,96055.53
2023-05-13T14:42:25.874Z,96049.53
2023-05-13T14:44:52.534Z,96046.19
2023-05-13T14:47:19.255Z,96062.03
2023-05-13T14:49:45.875Z,96051.00
2023-05-13T14:52:12.554Z,96051.00
2023-05-13T14:54:39.181Z,96045.34
2023-05-13T14:57:07.242Z,96050.31
2023-05-13T14:59:34.295Z,96048.78
2023-05-13T15:02:02.672Z,96044.28
2023-05-13T15:04:29.438Z,96037.47
2023-05-13T15:06:56.437Z,96046.16
2023-05-13T15:09:23.095Z,96027.69
2023-05-13T15:11:49.740Z,96028.13
2023-05-13T15:14:17.989Z,96010.66
2023-05-13T15:16:44.802Z,96032.97
2023-05-13T15:19:11.494Z,96033.41
2023-05-13T15:21:38.286Z,96031.38
2023-05-13T15:24:05.101Z,96036.13
2023-05-13T15:26:31.778Z,96038.84
2023-05-13T15:28:58.419Z,96030.38
2023-05-13T15:31:25.155Z,96037.81
2023-05-13T15:33:51.924Z,96024.97
2023-05-13T15:36:18.678Z,96031.25
2023-05-13T15:38:45.364Z,96034.81
2023-05-13T15:41:11.960Z,96032.13
2023-05-13T15:43:38.543Z,96025.63
2023-05-13T15:46:05.315Z,96028.75
2023-05-13T15:48:32.003Z,96035.28
2023-05-13T15:50:58.716Z,96037.66
2023-05-13T15:53:25.353Z,96040.00
2023-05-13T15:55:52.421Z,96045.22
2023-05-13T15:58:19.025Z,96039.25
2023-05-13T16:00:45.830Z,96036.53
2023-05-13T16:03:12.557Z,96038.84
2023-05-13T16:05:39.346Z,96029.59
2023-05-13T16:08:05.961Z,96027.66
2023-05-13T16:10:33.892Z,96023.31
2023-05-13T16:13:00.488Z,96028.50
2023-05-13T16:15:27.175Z,96026.13
2023-05-13T16:17:53.818Z,96031.03
2023-05-13T16:20:20.646Z,96024.44
2023-05-13T16:22:47.479Z,96021.91
2023-05-13T16:25:14.126Z,96028.91
2023-05-13T16:27:43.172Z,96035.84
2023-05-13T16:30:10.614Z,96044.84
2023-05-13T16:32:37.605Z,96041.84
2023-05-13T16:35:05.090Z,96043.59
2023-05-13T16:37:31.965Z,96049.56
2023-05-13T16:39:58.820Z,96049.78
2023-05-13T16:42:25.902Z,96050.47
2023-05-13T16:44:52.555Z,96049.66
2023-05-13T16:47:19.370Z,96052.19
2023-05-13T16:49:46.016Z,96051.59
2023-05-13T16:52:12.712Z,96061.94
2023-05-13T16:54:39.364Z,96059.88
2023-05-13T16:57:06.208Z,96066.69
2023-05-13T16:59:33.242Z,96069.19
2023-05-13T17:02:00.243Z,96062.41
2023-05-13T17:04:28.395Z,96064.69
2023-05-13T17:06:58.306Z,96059.94
2023-05-13T17:09:25.964Z,96066.00
2023-05-13T17:11:54.500Z,96064.59
2023-05-13T17:14:21.792Z,96062.19
2023-05-13T17:16:49.109Z,96058.72
2023-05-13T17:19:16.019Z,96064.50
2023-05-13T17:21:42.819Z,96081.25
2023-05-13T17:24:09.431Z,96073.13
2023-05-13T17:26:37.621Z,96082.91
2023-05-13T17:29:05.313Z,96083.41
2023-05-13T17:31:32.274Z,96090.03
2023-05-13T17:33:58.929Z,96095.69
2023-05-13T17:36:25.661Z,96092.69
2023-05-13T17:38:52.343Z,96096.59
2023-05-13T17:41:19.010Z,96093.75
2023-05-13T17:43:46.162Z,96090.59
2023-05-13T17:46:12.825Z,96090.94
2023-05-13T17:48:39.558Z,96096.25
2023-05-13T17:51:06.341Z,96081.19
2023-05-13T17:53:34.743Z,96085.28
2023-05-13T17:56:01.949Z,96088.25
2023-05-13T17:58:28.596Z,96089.25
2023-05-13T18:00:55.400Z,96088.66
2023-05-13T18:03:22.198Z,96096.16
2023-05-13T18:05:49.169Z,96091.13
2023-05-13T18:08:15.884Z,96099.97
2023-05-13T18:10:42.628Z,96102.88
2023-05-13T18:13:09.313Z,96104.69
2023-05-13T18:15:35.932Z,96099.91
2023-05-13T18:18:03.790Z,96102.31
2023-05-13T18:20:31.818Z,96112.81
2023-05-13T18:22:58.552Z,96116.34
2023-05-13T18:25:25.384Z,96113.94
2023-05-13T18:27:52.211Z,96111.13
2023-05-13T18:30:19.364Z,96115.91
2023-05-13T18:32:46.165Z,96117.03
2023-05-13T18:35:12.934Z,96120.03
2023-05-13T18:37:39.605Z,96120.22
2023-05-13T18:40:07.044Z,96110.50
2023-05-13T18:42:33.732Z,96116.69
2023-05-13T18:45:00.461Z,96119.09
2023-05-13T18:47:27.198Z,96122.56
2023-05-13T18:49:53.821Z,96116.06
2023-05-13T18:52:21.363Z,96125.94
2023-05-13T18:54:47.995Z,96131.94
2023-05-13T18:57:15.997Z,96134.22
2023-05-13T18:59:42.603Z,96140.84
2023-05-13T19:02:09.458Z,96132.94
2023-05-13T19:04:36.301Z,96148.69
2023-05-13T19:07:03.287Z,96143.28
2023-05-13T19:09:29.950Z,96146.31
2023-05-13T19:11:56.658Z,96156.16
2023-05-13T19:14:23.305Z,96155.53
2023-05-13T19:16:49.952Z,96164.75
2023-05-13T19:19:16.906Z,96162.06
2023-05-13T19:21:43.567Z,96164.09
2023-05-13T19:24:10.186Z,96164.09
2023-05-13T19:26:36.836Z,96168.88
2023-05-13T19:29:03.602Z,96173.16
2023-05-13T19:31:31.429Z,96164.09
2023-05-13T19:33:58.327Z,96161.22
2023-05-13T19:36:26.298Z,96161.22
2023-05-13T19:38:53.820Z,96164.25
2023-05-13T19:41:20.814Z,96168.88
2023-05-13T19:43:47.386Z,96162.66
2023-05-13T19:46:14.115Z,96167.25
2023-05-13T19:48:40.828Z,96158.41
2023-05-13T19:51:07.605Z,96164.09
2023-05-13T19:53:34.212Z,96169.34
2023-05-13T19:56:01.212Z,96175.81
2023-05-13T19:58:28.480Z,96184.69
2023-05-13T20:00:56.180Z,96176.75
2023-05-13T20:03:22.912Z,96183.72
2023-05-13T20:05:51.338Z,96179.63
2023-05-13T20:08:18.001Z,96170.09
2023-05-13T20:10:44.702Z,96172.31
2023-05-13T20:13:11.273Z,96172.31
2023-05-13T20:15:37.929Z,96172.66
2023-05-13T20:18:04.660Z,96171.31
2023-05-13T20:20:31.284Z,96176.09
2023-05-13T20:22:57.929Z,96176.09
2023-05-13T20:25:24.545Z,96160.22
2023-05-13T20:27:51.354Z,96169.59
2023-05-13T20:30:18.371Z,96166.59
2023-05-13T20:32:45.121Z,96164.56
2023-05-13T20:35:11.956Z,96166.41
2023-05-13T20:37:38.586Z,96165.94
2023-05-13T20:40:05.914Z,96163.44
2023-05-13T20:42:33.567Z,96171.84
2023-05-13T20:45:00.243Z,96166.00
2023-05-13T20:47:26.943Z,96167.91
2023-05-13T20:49:53.559Z,96165.19
2023-05-13T20:52:20.181Z,96167.00
2023-05-13T20:54:46.807Z,96165.63
2023-05-13T20:57:13.441Z,96159.06
2023-05-13T20:59:40.130Z,96164.31
2023-05-13T21:02:07.703Z,96164.97
2023-05-13T21:04:34.342Z,96155.44
2023-05-13T21:07:00.941Z,96149.84
2023-05-13T21:09:27.550Z,96145.38
2023-05-13T21:11:54.151Z,96142.97
2023-05-13T21:14:20.719Z,96139.53
2023-05-13T21:16:47.360Z,96137.72
2023-05-13T21:19:21.467Z,96149.53
2023-05-13T21:21:48.098Z,96151.25
2023-05-13T21:24:18.362Z,96157.59
2023-05-13T21:26:45.713Z,96152.38
2023-05-13T21:29:12.374Z,96152.84
2023-05-13T21:31:39.192Z,96151.31
2023-05-13T21:34:05.939Z,96156.00
2023-05-13T21:36:33.882Z,96152.38
2023-05-13T21:39:00.654Z,96149.59
2023-05-13T21:41:27.362Z,96149.31
2023-05-13T21:43:53.998Z,96149.94
2023-05-13T21:46:20.743Z,96147.09
2023-05-13T21:48:48.019Z,96154.78
2023-05-13T21:51:14.736Z,96143.50
2023-05-13T21:53:41.344Z,96147.66
2023-05-13T21:56:08.012Z,96149.59
2023-05-13T21:58:34.625Z,96146.72
2023-05-13T22:01:01.378Z,96148.31
2023-05-13T22:03:28.142Z,96146.63
2023-05-13T22:05:54.773Z,96147.72
2023-05-13T22:08:22.094Z,96151.94
2023-05-13T22:10:48.769Z,96151.19
2023-05-13T22:13:15.736Z,96147.72
2023-05-13T22:15:42.462Z,96151.25
2023-05-13T22:18:09.391Z,96146.34
2023-05-13T22:20:36.235Z,96149.94
2023-05-13T22:23:02.871Z,96146.03
2023-05-13T22:25:29.574Z,96143.88
2023-05-13T22:27:56.230Z,96140.72
2023-05-13T22:30:23.170Z,96137.34
2023-05-13T22:32:51.768Z,96136.66
2023-05-13T22:35:18.441Z,96134.13
2023-05-13T22:37:45.078Z,96142.28
2023-05-13T22:40:12.279Z,96137.78
2023-05-13T22:42:38.916Z,96130.06
2023-05-13T22:45:06.059Z,96134.06
2023-05-13T22:47:32.709Z,96136.75
2023-05-13T22:49:59.396Z,96129.13
2023-05-13T22:52:25.994Z,96127.53
2023-05-13T22:54:52.609Z,96130.66
2023-05-13T22:57:19.241Z,96129.47
2023-05-13T22:59:46.000Z,96136.13
2023-05-13T23:02:12.787Z,96135.28
2023-05-13T23:04:39.509Z,96134.00
2023-05-13T23:07:06.158Z,96123.28
2023-05-13T23:09:32.750Z,96123.59
2023-05-13T23:11:59.360Z,96124.94
2023-05-13T23:14:27.686Z,96128.53
2023-05-13T23:16:54.332Z,96117.44
2023-05-13T23:19:20.953Z,96123.84
2023-05-13T23:21:47.539Z,96125.31
2023-05-13T23:24:14.147Z,96120.44
2023-05-13T23:26:40.783Z,96117.91
2023-05-13T23:29:07.477Z,96114.16
2023-05-13T23:31:34.136Z,96111.56
2023-05-13T23:34:00.826Z,96116.03
2023-05-13T23:36:27.515Z,96111.94
2023-05-13T23:38:54.113Z,96106.44
2023-05-13T23:41:21.829Z,96098.25
2023-05-13T23:43:48.574Z,96109.75
2023-05-13T23:46:15.366Z,96105.81
2023-05-13T23:48:42.037Z,96109.66
2023-05-13T23:51:08.695Z,96108.59
2023-05-13T23:53:35.415Z,96101.44
2023-05-13T23:56:02.055Z,96106.06
2023-05-13T23:58:28.639Z,96104.66
